createdAt,value
2018-06-23T00:00:27.894Z,59.04
2018-06-23T00:03:01.310Z,58.90
2018-06-23T00:05:34.738Z,59.22
2018-06-23T00:08:08.513Z,58.97
2018-06-23T00:10:41.872Z,59.46
2018-06-23T00:13:15.278Z,59.42
2018-06-23T00:15:48.649Z,59.25
2018-06-23T00:18:22.045Z,59.32
2018-06-23T00:20:55.427Z,59.22
2018-06-23T00:23:28.997Z,59.36
2018-06-23T00:26:07.532Z,58.93
2018-06-23T00:28:40.930Z,59.13
2018-06-23T00:31:14.334Z,59.17
2018-06-23T00:33:47.744Z,59.05
2018-06-23T00:36:21.220Z,58.88
2018-06-23T00:38:54.626Z,59.04
2018-06-23T00:41:28.040Z,58.52
2018-06-23T00:44:01.487Z,58.31
2018-06-23T00:46:34.964Z,58.28
2018-06-23T00:49:08.341Z,58.75
2018-06-23T00:51:41.704Z,58.43
2018-06-23T00:54:15.124Z,58.64
2018-06-23T00:56:48.501Z,58.37
2018-06-23T00:59:33.076Z,58.60
2018-06-23T01:02:06.584Z,58.85
2018-06-23T01:04:39.978Z,58.10
2018-06-23T01:07:13.407Z,58.59
2018-06-23T01:09:46.794Z,58.84
2018-06-23T01:12:20.183Z,59.09
2018-06-23T01:14:53.743Z,58.75
2018-06-23T01:17:27.121Z,58.75
2018-06-23T01:20:00.550Z,58.50
2018-06-23T01:22:33.953Z,58.89
2018-06-23T01:25:07.430Z,58.93
2018-06-23T01:27:40.816Z,59.42
2018-06-23T01:30:14.212Z,58.94
2018-06-23T01:32:47.609Z,58.87
2018-06-23T01:35:20.995Z,59.04
2018-06-23T01:37:54.405Z,59.29
2018-06-23T01:40:27.797Z,59.08
2018-06-23T01:43:01.195Z,58.75
2018-06-23T01:45:34.629Z,58.69
2018-06-23T01:48:08.009Z,58.91
2018-06-23T01:50:41.462Z,58.95
2018-06-23T01:53:14.852Z,58.75
2018-06-23T01:55:48.288Z,58.68
2018-06-23T01:58:21.689Z,59.45
2018-06-23T02:00:55.095Z,59.08
2018-06-23T02:03:28.495Z,59.20
2018-06-23T02:06:01.983Z,59.25
2018-06-23T02:08:35.375Z,59.46
2018-06-23T02:11:08.786Z,59.42
2018-06-23T02:13:42.174Z,59.09
2018-06-23T02:16:20.774Z,59.40
2018-06-23T02:18:59.608Z,59.15
2018-06-23T02:21:38.286Z,58.96
2018-06-23T02:24:17.151Z,58.67
2018-06-23T02:26:55.927Z,58.89
2018-06-23T02:29:34.538Z,59.03
2018-06-23T02:32:13.261Z,59.30
2018-06-23T02:34:51.873Z,59.40
2018-06-23T02:37:25.292Z,58.95
2018-06-23T02:39:58.736Z,59.37
2018-06-23T02:42:32.206Z,58.66
2018-06-23T02:45:06.894Z,59.35
2018-06-23T02:47:40.313Z,59.36
2018-06-23T02:50:13.734Z,59.23
2018-06-23T02:52:47.152Z,59.11
2018-06-23T02:55:20.543Z,58.94
2018-06-23T02:57:53.950Z,59.08
2018-06-23T03:00:27.360Z,59.16
2018-06-23T03:03:00.748Z,59.52
2018-06-23T03:05:34.128Z,59.14
2018-06-23T03:08:07.528Z,59.40
2018-06-23T03:10:40.922Z,59.85
2018-06-23T03:13:14.340Z,61.04
2018-06-23T03:15:47.750Z,61.49
2018-06-23T03:18:21.206Z,61.55
2018-06-23T03:20:54.573Z,61.78
2018-06-23T03:23:27.991Z,62.49
2018-06-23T03:26:01.437Z,62.77
2018-06-23T03:28:34.858Z,63.02
2018-06-23T03:31:08.240Z,63.15
2018-06-23T03:33:41.667Z,63.39
2018-06-23T03:36:15.060Z,63.23
2018-06-23T03:38:48.473Z,63.99
2018-06-23T03:41:21.860Z,64.10
2018-06-23T03:43:55.359Z,64.96
2018-06-23T03:46:28.692Z,64.65
2018-06-23T03:49:02.125Z,64.99
2018-06-23T03:51:35.588Z,65.41
2018-06-23T03:54:09.001Z,65.49
2018-06-23T03:56:42.377Z,65.26
2018-06-23T03:59:15.776Z,65.45
2018-06-23T04:01:49.141Z,65.47
2018-06-23T04:04:22.576Z,65.30
2018-06-23T04:06:55.973Z,65.37
2018-06-23T04:09:29.411Z,65.35
2018-06-23T04:12:03.801Z,65.39
2018-06-23T04:14:37.269Z,66.18
2018-06-23T04:17:10.673Z,65.89
2018-06-23T04:19:44.096Z,65.71
2018-06-23T04:22:17.557Z,66.35
2018-06-23T04:24:50.951Z,66.26
2018-06-23T04:27:24.319Z,66.75
2018-06-23T04:29:57.724Z,66.82
2018-06-23T04:32:31.129Z,66.73
2018-06-23T04:35:04.534Z,66.83
2018-06-23T04:37:37.979Z,66.96
2018-06-23T04:40:11.363Z,66.65
2018-06-23T04:42:46.507Z,67.06
2018-06-23T04:45:19.912Z,66.85
2018-06-23T04:47:53.368Z,67.17
2018-06-23T04:50:26.819Z,67.00
2018-06-23T04:53:00.266Z,67.01
2018-06-23T04:55:33.687Z,67.17
2018-06-23T04:58:07.106Z,67.49
2018-06-23T05:00:40.500Z,67.20
2018-06-23T05:03:13.924Z,67.63
2018-06-23T05:05:47.307Z,67.67
2018-06-23T05:08:20.737Z,67.56
2018-06-23T05:10:54.128Z,67.52
2018-06-23T05:13:27.575Z,67.24
2018-06-23T05:16:00.935Z,67.68
2018-06-23T05:18:34.368Z,67.66
2018-06-23T05:21:07.789Z,67.68
2018-06-23T05:23:41.366Z,67.40
2018-06-23T05:26:14.743Z,67.38
2018-06-23T05:28:48.175Z,67.73
2018-06-23T05:31:21.531Z,67.82
2018-06-23T05:33:55.274Z,67.63
2018-06-23T05:36:28.701Z,67.67
2018-06-23T05:39:02.121Z,67.58
2018-06-23T05:41:35.667Z,67.75
2018-06-23T05:44:09.113Z,67.61
2018-06-23T05:46:42.520Z,67.73
2018-06-23T05:49:15.940Z,68.15
2018-06-23T05:51:49.318Z,67.74
2018-06-23T05:54:22.735Z,67.53
2018-06-23T05:56:56.112Z,67.55
2018-06-23T05:59:29.510Z,67.57
2018-06-23T06:02:02.922Z,67.53
2018-06-23T06:04:36.368Z,67.18
2018-06-23T06:07:09.891Z,67.31
2018-06-23T06:09:43.262Z,67.22
2018-06-23T06:12:16.673Z,66.82
2018-06-23T06:14:50.114Z,66.69
2018-06-23T06:17:40.294Z,66.88
2018-06-23T06:20:15.283Z,66.60
2018-06-23T06:22:48.672Z,66.92
2018-06-23T06:25:22.801Z,66.64
2018-06-23T06:27:56.170Z,66.98
2018-06-23T06:30:29.547Z,66.55
2018-06-23T06:33:02.901Z,66.58
2018-06-23T06:35:36.382Z,66.49
2018-06-23T06:38:09.777Z,66.59
2018-06-23T06:40:43.205Z,67.20
2018-06-23T06:43:16.576Z,66.58
2018-06-23T06:45:49.963Z,66.08
2018-06-23T06:48:23.321Z,66.23
2018-06-23T06:50:56.717Z,66.47
2018-06-23T06:53:30.076Z,65.89
2018-06-23T06:56:03.536Z,65.79
2018-06-23T06:58:36.980Z,64.95
2018-06-23T07:01:10.405Z,64.92
2018-06-23T07:03:43.788Z,64.75
2018-06-23T07:06:17.193Z,63.88
2018-06-23T07:08:50.642Z,63.89
2018-06-23T07:11:24.005Z,63.51
2018-06-23T07:13:57.368Z,63.25
2018-06-23T07:16:30.827Z,62.90
2018-06-23T07:19:04.489Z,63.55
2018-06-23T07:21:37.966Z,64.24
2018-06-23T07:24:11.372Z,63.88
2018-06-23T07:26:44.787Z,63.06
2018-06-23T07:29:18.165Z,62.36
2018-06-23T07:31:51.552Z,62.94
2018-06-23T07:34:25.030Z,62.16
2018-06-23T07:36:58.348Z,61.92
2018-06-23T07:39:31.791Z,62.26
2018-06-23T07:42:05.195Z,62.32
2018-06-23T07:44:38.629Z,62.66
2018-06-23T07:47:12.012Z,61.72
2018-06-23T07:49:45.455Z,62.06
2018-06-23T07:52:18.858Z,62.05
2018-06-23T07:54:52.267Z,62.27
2018-06-23T07:57:25.643Z,62.73
2018-06-23T07:59:59.001Z,62.50
2018-06-23T08:02:32.391Z,61.72
2018-06-23T08:05:05.851Z,60.03
2018-06-23T08:07:39.248Z,59.54
2018-06-23T08:10:12.668Z,59.79
2018-06-23T08:12:46.070Z,60.31
2018-06-23T08:15:19.501Z,59.02
2018-06-23T08:17:52.959Z,58.34
2018-06-23T08:20:26.348Z,57.93
2018-06-23T08:22:59.757Z,57.94
2018-06-23T08:25:33.419Z,57.53
2018-06-23T08:28:06.821Z,57.96
2018-06-23T08:30:40.233Z,58.16
2018-06-23T08:33:13.643Z,57.22
2018-06-23T08:35:47.053Z,56.72
2018-06-23T08:38:20.435Z,57.08
2018-06-23T08:40:53.935Z,57.21
2018-06-23T08:43:27.342Z,58.38
2018-06-23T08:46:00.761Z,57.47
2018-06-23T08:48:34.216Z,57.90
2018-06-23T08:51:07.705Z,57.57
2018-06-23T08:53:41.129Z,57.51
2018-06-23T08:56:14.536Z,57.81
2018-06-23T08:58:47.938Z,58.15
2018-06-23T09:01:21.891Z,56.20
2018-06-23T09:03:55.381Z,56.82
2018-06-23T09:06:28.821Z,57.27
2018-06-23T09:09:02.220Z,56.54
2018-06-23T09:11:35.698Z,57.26
2018-06-23T09:14:09.219Z,57.63
2018-06-23T09:16:42.663Z,56.92
2018-06-23T09:19:16.085Z,58.23
2018-06-23T09:21:49.515Z,57.45
2018-06-23T09:24:22.919Z,57.17
2018-06-23T09:26:56.313Z,57.94
2018-06-23T09:29:29.725Z,55.00
2018-06-23T09:32:03.186Z,54.43
2018-06-23T09:34:36.622Z,54.00
2018-06-23T09:37:10.077Z,52.34
2018-06-23T09:39:43.464Z,50.56
2018-06-23T09:42:16.877Z,50.87
2018-06-23T09:44:50.422Z,51.37
2018-06-23T09:47:23.865Z,48.98
2018-06-23T09:49:57.343Z,49.27
2018-06-23T09:52:30.883Z,49.67
2018-06-23T09:55:04.315Z,50.15
2018-06-23T09:57:37.735Z,51.65
2018-06-23T10:00:11.230Z,49.97
2018-06-23T10:02:45.975Z,51.60
2018-06-23T10:05:19.356Z,51.13
2018-06-23T10:07:52.753Z,49.79
2018-06-23T10:10:26.277Z,51.55
2018-06-23T10:12:59.688Z,50.82
2018-06-23T10:15:33.146Z,50.99
2018-06-23T10:18:06.604Z,51.85
2018-06-23T10:20:39.997Z,52.55
2018-06-23T10:23:13.409Z,48.78
2018-06-23T10:25:46.796Z,50.03
2018-06-23T10:28:20.199Z,48.94
2018-06-23T10:30:53.621Z,48.53
2018-06-23T10:33:27.070Z,48.45
2018-06-23T10:36:00.518Z,49.51
2018-06-23T10:38:34.094Z,49.42
2018-06-23T10:41:07.625Z,50.10
2018-06-23T10:43:41.083Z,49.77
2018-06-23T10:46:14.491Z,49.71
2018-06-23T10:48:47.935Z,49.14
2018-06-23T10:51:21.348Z,49.74
2018-06-23T10:53:54.755Z,49.29
2018-06-23T10:56:28.242Z,49.79
2018-06-23T10:59:01.674Z,50.40
2018-06-23T11:01:35.089Z,49.89
2018-06-23T11:04:08.711Z,50.94
2018-06-23T11:06:42.108Z,50.32
2018-06-23T11:09:15.525Z,51.01
2018-06-23T11:11:48.963Z,50.61
2018-06-23T11:14:22.443Z,49.52
2018-06-23T11:16:55.880Z,50.33
2018-06-23T11:19:29.324Z,49.65
2018-06-23T11:22:02.760Z,48.98
2018-06-23T11:24:36.434Z,48.31
2018-06-23T11:27:09.705Z,47.80
2018-06-23T11:29:43.128Z,46.81
2018-06-23T11:32:16.639Z,46.72
2018-06-23T11:34:49.975Z,46.67
2018-06-23T11:37:23.374Z,47.18
2018-06-23T11:39:56.804Z,46.68
2018-06-23T11:42:30.266Z,47.49
2018-06-23T11:45:03.800Z,47.72
2018-06-23T11:47:37.280Z,47.12
2018-06-23T11:50:10.706Z,46.60
2018-06-23T11:52:44.155Z,46.41
2018-06-23T11:55:17.546Z,47.62
2018-06-23T11:57:50.975Z,46.95
2018-06-23T12:00:24.346Z,48.23
2018-06-23T12:02:58.169Z,46.87
2018-06-23T12:05:31.615Z,46.98
2018-06-23T12:08:06.152Z,48.03
2018-06-23T12:10:40.872Z,47.47
2018-06-23T12:13:15.617Z,47.47
2018-06-23T12:15:50.189Z,48.80
2018-06-23T12:18:29.106Z,48.15
2018-06-23T12:21:03.479Z,47.92
2018-06-23T12:23:36.905Z,49.00
2018-06-23T12:26:10.332Z,48.72
2018-06-23T12:28:43.728Z,49.10
2018-06-23T12:31:17.170Z,49.14
2018-06-23T12:33:50.608Z,48.74
2018-06-23T12:36:24.059Z,49.13
2018-06-23T12:38:57.464Z,49.91
2018-06-23T12:41:30.951Z,50.18
2018-06-23T12:44:04.431Z,50.24
2018-06-23T12:46:38.433Z,50.03
2018-06-23T12:49:11.892Z,49.21
2018-06-23T12:51:45.243Z,49.47
2018-06-23T12:54:18.694Z,49.40
2018-06-23T12:56:52.129Z,50.12
2018-06-23T12:59:25.775Z,50.19
2018-06-23T13:01:59.188Z,50.69
2018-06-23T13:04:32.671Z,50.58
2018-06-23T13:07:06.454Z,50.27
2018-06-23T13:09:40.469Z,51.06
2018-06-23T13:12:14.295Z,51.44
2018-06-23T13:14:47.759Z,52.14
2018-06-23T13:17:21.154Z,51.59
2018-06-23T13:19:54.567Z,52.47
2018-06-23T13:22:27.955Z,53.43
2018-06-23T13:25:01.421Z,54.74
2018-06-23T13:27:34.802Z,54.65
2018-06-23T13:30:08.205Z,54.91
2018-06-23T13:32:41.582Z,54.22
2018-06-23T13:35:15.006Z,53.76
2018-06-23T13:37:48.398Z,54.64
2018-06-23T13:40:21.844Z,54.98
2018-06-23T13:42:55.521Z,55.83
2018-06-23T13:45:28.993Z,57.16
2018-06-23T13:48:02.372Z,57.47
2018-06-23T13:50:35.846Z,57.83
2018-06-23T13:53:09.338Z,58.45
2018-06-23T13:55:42.913Z,58.52
2018-06-23T13:58:16.315Z,58.37
2018-06-23T14:00:49.723Z,58.50
2018-06-23T14:03:23.570Z,57.98
2018-06-23T14:05:56.914Z,58.28
2018-06-23T14:08:30.344Z,58.96
2018-06-23T14:11:03.843Z,58.65
2018-06-23T14:13:37.268Z,58.98
2018-06-23T14:16:10.642Z,57.88
2018-06-23T14:18:44.050Z,58.03
2018-06-23T14:21:17.468Z,58.26
2018-06-23T14:23:50.857Z,58.26
2018-06-23T14:26:24.314Z,59.06
2018-06-23T14:28:57.699Z,59.08
2018-06-23T14:31:31.202Z,58.58
2018-06-23T14:34:04.567Z,58.71
2018-06-23T14:36:37.956Z,58.32
2018-06-23T14:39:12.336Z,57.27
2018-06-23T14:41:45.753Z,57.84
2018-06-23T14:44:19.181Z,57.58
2018-06-23T14:46:52.567Z,56.78
2018-06-23T14:49:25.978Z,57.04
2018-06-23T14:51:59.348Z,57.42
2018-06-23T14:54:32.788Z,57.16
2018-06-23T14:57:06.225Z,56.81
2018-06-23T14:59:39.637Z,56.87
2018-06-23T15:02:13.030Z,56.58
2018-06-23T15:04:46.411Z,56.74
2018-06-23T15:07:19.875Z,57.23
2018-06-23T15:10:04.349Z,56.39
2018-06-23T15:12:49.163Z,56.50
2018-06-23T15:15:22.563Z,56.48
2018-06-23T15:17:55.947Z,56.07
2018-06-23T15:20:29.337Z,56.24
2018-06-23T15:23:02.747Z,56.68
2018-06-23T15:25:36.184Z,56.64
2018-06-23T15:28:09.813Z,56.24
2018-06-23T15:30:43.130Z,56.37
2018-06-23T15:33:16.521Z,56.16
2018-06-23T15:35:49.911Z,55.95
2018-06-23T15:38:23.276Z,55.97
2018-06-23T15:40:57.136Z,56.30
2018-06-23T15:43:30.501Z,55.99
2018-06-23T15:46:04.004Z,56.12
2018-06-23T15:48:37.380Z,56.25
2018-06-23T15:51:10.836Z,56.52
2018-06-23T15:53:44.258Z,56.03
2018-06-23T15:56:17.655Z,56.78
2018-06-23T15:58:51.033Z,56.54
2018-06-23T16:01:24.498Z,56.05
2018-06-23T16:03:57.877Z,56.01
2018-06-23T16:06:31.340Z,55.73
2018-06-23T16:09:08.024Z,55.67
2018-06-23T16:11:41.492Z,56.07
2018-06-23T16:14:14.931Z,55.89
2018-06-23T16:16:48.411Z,55.72
2018-06-23T16:19:21.864Z,55.67
2018-06-23T16:21:55.301Z,56.24
2018-06-23T16:24:28.704Z,55.49
2018-06-23T16:27:02.425Z,56.04
2018-06-23T16:29:35.859Z,56.25
2018-06-23T16:32:09.288Z,56.57
2018-06-23T16:34:42.725Z,57.10
2018-06-23T16:37:16.186Z,57.63
2018-06-23T16:39:49.566Z,57.87
2018-06-23T16:42:22.995Z,58.76
2018-06-23T16:44:56.371Z,58.89
2018-06-23T16:47:30.741Z,58.85
2018-06-23T16:50:04.193Z,58.98
2018-06-23T16:52:37.721Z,58.96
2018-06-23T16:55:11.128Z,59.04
2018-06-23T16:57:44.572Z,59.04
2018-06-23T17:00:17.992Z,58.32
2018-06-23T17:02:51.493Z,58.33
2018-06-23T17:05:24.858Z,58.76
2018-06-23T17:07:58.255Z,58.46
2018-06-23T17:10:31.761Z,58.68
2018-06-23T17:13:05.176Z,58.42
2018-06-23T17:15:38.529Z,58.38
2018-06-23T17:18:12.074Z,58.01
2018-06-23T17:20:45.457Z,57.64
2018-06-23T17:23:18.842Z,58.06
2018-06-23T17:25:52.271Z,57.92
2018-06-23T17:28:25.656Z,57.72
2018-06-23T17:30:59.070Z,57.70
2018-06-23T17:33:32.491Z,57.86
2018-06-23T17:36:05.901Z,58.16
2018-06-23T17:38:39.286Z,58.07
2018-06-23T17:41:12.709Z,58.42
2018-06-23T17:43:46.135Z,58.75
2018-06-23T17:46:19.516Z,58.92
2018-06-23T17:48:52.944Z,58.55
2018-06-23T17:51:26.332Z,59.40
2018-06-23T17:53:59.758Z,59.19
2018-06-23T17:56:33.173Z,59.64
2018-06-23T17:59:06.620Z,60.13
2018-06-23T18:01:40.051Z,60.22
2018-06-23T18:04:13.408Z,61.23
2018-06-23T18:06:46.813Z,61.06
2018-06-23T18:09:20.198Z,61.54
2018-06-23T18:11:53.614Z,61.56
2018-06-23T18:14:26.997Z,61.89
2018-06-23T18:17:00.384Z,61.86
2018-06-23T18:19:33.838Z,61.97
2018-06-23T18:22:07.262Z,62.35
2018-06-23T18:24:40.617Z,62.46
2018-06-23T18:27:14.018Z,62.39
2018-06-23T18:29:47.404Z,62.80
2018-06-23T18:32:20.869Z,63.72
2018-06-23T18:34:54.304Z,63.41
2018-06-23T18:37:27.746Z,63.15
2018-06-23T18:40:01.188Z,63.48
2018-06-23T18:42:34.650Z,63.13
2018-06-23T18:45:08.057Z,63.40
2018-06-23T18:47:41.489Z,63.27
2018-06-23T18:50:14.892Z,63.96
2018-06-23T18:52:48.300Z,63.78
2018-06-23T18:55:21.778Z,63.67
2018-06-23T18:57:55.758Z,63.47
2018-06-23T19:00:29.902Z,63.59
2018-06-23T19:03:03.617Z,63.77
2018-06-23T19:05:37.035Z,63.55
2018-06-23T19:08:10.461Z,63.28
2018-06-23T19:10:43.823Z,63.50
2018-06-23T19:13:17.200Z,63.41
2018-06-23T19:15:50.612Z,63.63
2018-06-23T19:18:24.020Z,63.33
2018-06-23T19:20:57.475Z,63.22
2018-06-23T19:23:30.897Z,63.48
2018-06-23T19:26:04.335Z,63.54
2018-06-23T19:28:37.823Z,63.43
2018-06-23T19:31:11.202Z,63.39
2018-06-23T19:33:44.663Z,63.42
2018-06-23T19:36:18.104Z,63.56
2018-06-23T19:38:51.523Z,63.43
2018-06-23T19:41:26.707Z,63.57
2018-06-23T19:44:00.205Z,63.66
2018-06-23T19:46:33.611Z,63.68
2018-06-23T19:49:07.085Z,63.57
2018-06-23T19:51:40.496Z,63.64
2018-06-23T19:54:13.880Z,63.78
2018-06-23T19:56:47.266Z,63.68
2018-06-23T19:59:20.659Z,63.59
2018-06-23T20:01:54.025Z,63.38
2018-06-23T20:04:27.472Z,63.52
2018-06-23T20:07:00.907Z,63.71
2018-06-23T20:09:34.585Z,63.42
2018-06-23T20:12:07.989Z,63.09
2018-06-23T20:14:41.407Z,63.57
2018-06-23T20:17:14.791Z,63.38
2018-06-23T20:19:48.184Z,63.55
2018-06-23T20:22:21.557Z,63.38
2018-06-23T20:24:54.957Z,63.04
2018-06-23T20:27:28.336Z,63.46
2018-06-23T20:30:01.806Z,63.47
2018-06-23T20:32:35.265Z,63.60
2018-06-23T20:35:08.691Z,63.75
2018-06-23T20:37:42.048Z,63.54
2018-06-23T20:40:15.472Z,63.67
2018-06-23T20:42:48.904Z,63.31
2018-06-23T20:45:22.308Z,63.72
2018-06-23T20:47:55.688Z,63.49
2018-06-23T20:50:29.392Z,63.42
2018-06-23T20:53:02.854Z,63.44
2018-06-23T20:55:36.232Z,63.60
2018-06-23T20:58:09.643Z,63.46
2018-06-23T21:00:43.052Z,63.53
2018-06-23T21:03:16.422Z,63.48
2018-06-23T21:05:49.821Z,63.49
2018-06-23T21:08:23.189Z,63.38
2018-06-23T21:10:56.583Z,63.32
2018-06-23T21:13:30.032Z,63.18
2018-06-23T21:16:03.469Z,63.19
2018-06-23T21:18:36.967Z,63.40
2018-06-23T21:21:10.386Z,63.61
2018-06-23T21:23:43.788Z,63.11
2018-06-23T21:26:17.172Z,63.47
2018-06-23T21:28:50.558Z,63.80
2018-06-23T21:31:23.956Z,63.50
2018-06-23T21:33:57.348Z,63.34
2018-06-23T21:36:30.720Z,63.48
2018-06-23T21:39:05.013Z,63.31
2018-06-23T21:41:38.447Z,63.22
2018-06-23T21:44:11.862Z,62.96
2018-06-23T21:46:45.258Z,62.91
2018-06-23T21:49:18.679Z,63.14
2018-06-23T21:51:52.078Z,62.87
2018-06-23T21:54:25.482Z,63.07
2018-06-23T21:56:58.888Z,63.24
2018-06-23T21:59:32.344Z,62.94
2018-06-23T22:02:05.808Z,62.52
2018-06-23T22:04:39.207Z,62.48
2018-06-23T22:07:12.680Z,62.77
2018-06-23T22:09:46.084Z,62.73
2018-06-23T22:12:19.501Z,62.58
2018-06-23T22:14:52.893Z,62.20
2018-06-23T22:17:26.240Z,62.15
2018-06-23T22:19:59.688Z,62.30
2018-06-23T22:22:33.107Z,62.38
2018-06-23T22:25:06.549Z,62.50
2018-06-23T22:27:40.547Z,62.24
2018-06-23T22:30:14.204Z,61.76
2018-06-23T22:32:47.619Z,61.99
2018-06-23T22:35:21.138Z,61.94
2018-06-23T22:37:54.516Z,61.58
2018-06-23T22:40:28.451Z,61.51
2018-06-23T22:43:03.029Z,61.54
2018-06-23T22:45:37.322Z,61.67
2018-06-23T22:48:11.020Z,61.67
2018-06-23T22:50:44.952Z,62.22
2018-06-23T22:53:18.347Z,61.60
2018-06-23T22:55:52.353Z,61.51
2018-06-23T22:58:25.732Z,61.66
2018-06-23T23:00:59.135Z,61.71
2018-06-23T23:03:32.525Z,61.52
2018-06-23T23:06:06.048Z,61.60
2018-06-23T23:08:39.418Z,61.27
2018-06-23T23:11:12.840Z,61.25
2018-06-23T23:13:46.260Z,61.19
2018-06-23T23:16:19.686Z,61.10
2018-06-23T23:18:53.142Z,61.46
2018-06-23T23:21:26.545Z,61.37
2018-06-23T23:23:59.937Z,61.37
2018-06-23T23:26:33.731Z,60.72
2018-06-23T23:29:07.235Z,60.88
2018-06-23T23:31:40.770Z,61.29
2018-06-23T23:34:14.155Z,61.49
2018-06-23T23:36:47.612Z,61.36
2018-06-23T23:39:21.024Z,61.42
2018-06-23T23:41:54.461Z,61.05
2018-06-23T23:44:27.864Z,61.31
2018-06-23T23:47:01.293Z,61.16
2018-06-23T23:49:34.702Z,61.44
2018-06-23T23:52:08.257Z,60.87
2018-06-23T23:54:41.718Z,61.10
2018-06-23T23:57:15.220Z,60.88
2018-06-23T23:59:48.620Z,60.67
